sensor_id;sensor_type;location;lat;lon;timestamp;pressure;altitude;pressure_sealevel;temperature;humidity
71735;BME280;59577;52.122;5.406;2023-03-31T00:01:22;100399.28;;;9.29;91.47
71735;BME280;59577;52.122;5.406;2023-03-31T00:03:49;100401.22;;;9.28;92.44
71735;BME280;59577;52.122;5.406;2023-03-31T00:06:22;100392.69;;;9.26;92.32
71735;BME280;59577;52.122;5.406;2023-03-31T00:08:48;100390.78;;;9.27;93.16
71735;BME280;59577;52.122;5.406;2023-03-31T00:11:19;100376.50;;;9.26;93.37
71735;BME280;59577;52.122;5.406;2023-03-31T00:13:52;100369.16;;;9.27;93.20
71735;BME280;59577;52.122;5.406;2023-03-31T00:16:19;100368.41;;;9.26;93.86
71735;BME280;59577;52.122;5.406;2023-03-31T00:18:45;100363.41;;;9.28;94.32
71735;BME280;59577;52.122;5.406;2023-03-31T00:21:19;100361.50;;;9.29;93.99
71735;BME280;59577;52.122;5.406;2023-03-31T00:24:10;100354.97;;;9.30;94.65
71735;BME280;59577;52.122;5.406;2023-03-31T00:26:37;100347.28;;;9.32;94.51
71735;BME280;59577;52.122;5.406;2023-03-31T00:29:05;100345.34;;;9.32;95.28
71735;BME280;59577;52.122;5.406;2023-03-31T00:31:33;100339.94;;;9.32;95.31
71735;BME280;59577;52.122;5.406;2023-03-31T00:33:59;100331.50;;;9.34;94.96
71735;BME280;59577;52.122;5.406;2023-03-31T00:36:26;100324.97;;;9.35;94.87
71735;BME280;59577;52.122;5.406;2023-03-31T00:38:55;100322.34;;;9.38;95.33
71735;BME280;59577;52.122;5.406;2023-03-31T00:41:26;100313.88;;;9.40;95.64
71735;BME280;59577;52.122;5.406;2023-03-31T00:44:20;100302.72;;;9.41;95.95
71735;BME280;59577;52.122;5.406;2023-03-31T00:47:24;100302.72;;;9.41;95.82
71735;BME280;59577;52.122;5.406;2023-03-31T00:49:49;100298.50;;;9.44;95.76
71735;BME280;59577;52.122;5.406;2023-03-31T00:52:21;100288.94;;;9.47;95.92
71735;BME280;59577;52.122;5.406;2023-03-31T00:54:54;100282.03;;;9.49;95.76
71735;BME280;59577;52.122;5.406;2023-03-31T00:57:22;100281.31;;;9.52;95.37
71735;BME280;59577;52.122;5.406;2023-03-31T00:59:52;100271.34;;;9.56;95.47
71735;BME280;59577;52.122;5.406;2023-03-31T01:02:21;100273.34;;;9.59;95.70
71735;BME280;59577;52.122;5.406;2023-03-31T01:04:56;100276.88;;;9.64;95.67
71735;BME280;59577;52.122;5.406;2023-03-31T01:07:33;100260.75;;;9.67;95.78
71735;BME280;59577;52.122;5.406;2023-03-31T01:10:06;100265.81;;;9.72;95.45
71735;BME280;59577;52.122;5.406;2023-03-31T01:12:37;100252.41;;;9.76;95.26
71735;BME280;59577;52.122;5.406;2023-03-31T01:15:05;100249.41;;;9.81;95.81
71735;BME280;59577;52.122;5.406;2023-03-31T01:17:32;100240.13;;;9.82;95.62
71735;BME280;59577;52.122;5.406;2023-03-31T01:20:12;100225.38;;;9.76;98.43
71735;BME280;59577;52.122;5.406;2023-03-31T01:22:55;100224.81;;;9.67;100.00
71735;BME280;59577;52.122;5.406;2023-03-31T01:26:02;100220.00;;;9.56;100.00
71735;BME280;59577;52.122;5.406;2023-03-31T01:28:44;100216.13;;;9.54;100.00
71735;BME280;59577;52.122;5.406;2023-03-31T01:34:54;100192.50;;;9.51;100.00
71735;BME280;59577;52.122;5.406;2023-03-31T01:39:46;100187.06;;;9.47;100.00
71735;BME280;59577;52.122;5.406;2023-03-31T01:42:36;100173.91;;;9.46;100.00
71735;BME280;59577;52.122;5.406;2023-03-31T01:45:29;100178.88;;;9.44;100.00
71735;BME280;59577;52.122;5.406;2023-03-31T01:48:07;100171.56;;;9.44;100.00
71735;BME280;59577;52.122;5.406;2023-03-31T01:50:47;100166.50;;;9.43;100.00
71735;BME280;59577;52.122;5.406;2023-03-31T01:56:13;100146.47;;;9.44;100.00
71735;BME280;59577;52.122;5.406;2023-03-31T01:58:56;100153.06;;;9.46;100.00
71735;BME280;59577;52.122;5.406;2023-03-31T02:01:34;100137.66;;;9.47;100.00
71735;BME280;59577;52.122;5.406;2023-03-31T02:04:55;100135.72;;;9.47;100.00
71735;BME280;59577;52.122;5.406;2023-03-31T02:06:59;100130.31;;;9.47;100.00
71735;BME280;59577;52.122;5.406;2023-03-31T02:09:33;100123.41;;;9.50;100.00
71735;BME280;59577;52.122;5.406;2023-03-31T02:12:13;100120.69;;;9.50;100.00
71735;BME280;59577;52.122;5.406;2023-03-31T02:14:49;100111.09;;;9.52;100.00
71735;BME280;59577;52.122;5.406;2023-03-31T02:17:21;100107.28;;;9.53;100.00
71735;BME280;59577;52.122;5.406;2023-03-31T02:19:57;100096.47;;;9.53;100.00
71735;BME280;59577;52.122;5.406;2023-03-31T02:22:28;100101.13;;;9.56;100.00
71735;BME280;59577;52.122;5.406;2023-03-31T02:24:58;100091.91;;;9.57;100.00
71735;BME280;59577;52.122;5.406;2023-03-31T02:27:39;100078.03;;;9.59;100.00
71735;BME280;59577;52.122;5.406;2023-03-31T02:30:08;100076.50;;;9.62;100.00
71735;BME280;59577;52.122;5.406;2023-03-31T02:32:43;100062.22;;;9.61;100.00
71735;BME280;59577;52.122;5.406;2023-03-31T02:35:25;100060.69;;;9.64;100.00
71735;BME280;59577;52.122;5.406;2023-03-31T02:37:51;100051.09;;;9.66;100.00
71735;BME280;59577;52.122;5.406;2023-03-31T02:40:21;100046.09;;;9.68;100.00
71735;BME280;59577;52.122;5.406;2023-03-31T02:42:48;100043.41;;;9.68;100.00
71735;BME280;59577;52.122;5.406;2023-03-31T02:48:16;100037.28;;;9.71;100.00
71735;BME280;59577;52.122;5.406;2023-03-31T02:51:03;100027.25;;;9.72;100.00
71735;BME280;59577;52.122;5.406;2023-03-31T02:57:06;100004.81;;;9.68;100.00
71735;BME280;59577;52.122;5.406;2023-03-31T03:02:24;99992.44;;;9.67;100.00
71735;BME280;59577;52.122;5.406;2023-03-31T03:11:13;99959.19;;;9.63;100.00
71735;BME280;59577;52.122;5.406;2023-03-31T03:13:52;99956.09;;;9.60;100.00
71735;BME280;59577;52.122;5.406;2023-03-31T03:16:26;99947.53;;;9.58;100.00
71735;BME280;59577;52.122;5.406;2023-03-31T03:18:58;99944.44;;;9.56;100.00
71735;BME280;59577;52.122;5.406;2023-03-31T03:21:27;99946.38;;;9.56;100.00
71735;BME280;59577;52.122;5.406;2023-03-31T03:23:53;99932.44;;;9.54;100.00
71735;BME280;59577;52.122;5.406;2023-03-31T03:26:20;99930.53;;;9.54;100.00
71735;BME280;59577;52.122;5.406;2023-03-31T03:28:50;99928.53;;;9.51;100.00
71735;BME280;59577;52.122;5.406;2023-03-31T03:31:17;99921.59;;;9.50;100.00
71735;BME280;59577;52.122;5.406;2023-03-31T03:33:47;99924.66;;;9.49;100.00
71735;BME280;59577;52.122;5.406;2023-03-31T03:36:13;99920.41;;;9.48;100.00
71735;BME280;59577;52.122;5.406;2023-03-31T03:38:40;99910.75;;;9.47;100.00
71735;BME280;59577;52.122;5.406;2023-03-31T03:41:07;99901.84;;;9.46;100.00
71735;BME280;59577;52.122;5.406;2023-03-31T03:43:41;99889.88;;;9.44;100.00
71735;BME280;59577;52.122;5.406;2023-03-31T03:46:08;99882.91;;;9.43;100.00
71735;BME280;59577;52.122;5.406;2023-03-31T03:48:38;99877.50;;;9.43;100.00
71735;BME280;59577;52.122;5.406;2023-03-31T03:51:04;99874.03;;;9.42;100.00
71735;BME280;59577;52.122;5.406;2023-03-31T03:53:31;99872.47;;;9.41;100.00
71735;BME280;59577;52.122;5.406;2023-03-31T03:55:58;99869.34;;;9.39;100.00
71735;BME280;59577;52.122;5.406;2023-03-31T03:58:25;99854.31;;;9.38;100.00
71735;BME280;59577;52.122;5.406;2023-03-31T04:00:51;99855.44;;;9.37;100.00
71735;BME280;59577;52.122;5.406;2023-03-31T04:03:38;99853.88;;;9.36;100.00
71735;BME280;59577;52.122;5.406;2023-03-31T04:06:05;99852.69;;;9.33;100.00
71735;BME280;59577;52.122;5.406;2023-03-31T04:08:36;99849.19;;;9.29;100.00
71735;BME280;59577;52.122;5.406;2023-03-31T04:11:10;99849.97;;;9.30;100.00
71735;BME280;59577;52.122;5.406;2023-03-31T04:13:38;99835.63;;;9.26;100.00
71735;BME280;59577;52.122;5.406;2023-03-31T04:16:06;99823.66;;;9.23;100.00
71735;BME280;59577;52.122;5.406;2023-03-31T04:18:33;99820.91;;;9.19;100.00
71735;BME280;59577;52.122;5.406;2023-03-31T04:21:02;99814.31;;;9.17;100.00
71735;BME280;59577;52.122;5.406;2023-03-31T04:23:34;99801.97;;;9.16;100.00
71735;BME280;59577;52.122;5.406;2023-03-31T04:26:03;99783.78;;;9.13;100.00
71735;BME280;59577;52.122;5.406;2023-03-31T04:28:35;99784.16;;;9.11;100.00
71735;BME280;59577;52.122;5.406;2023-03-31T04:31:03;99776.47;;;9.13;100.00
71735;BME280;59577;52.122;5.406;2023-03-31T04:36:21;99756.03;;;9.12;100.00
71735;BME280;59577;52.122;5.406;2023-03-31T04:38:49;99744.81;;;9.10;100.00
71735;BME280;59577;52.122;5.406;2023-03-31T04:41:29;99735.56;;;9.11;100.00
71735;BME280;59577;52.122;5.406;2023-03-31T04:43:55;99729.75;;;9.09;100.00
71735;BME280;59577;52.122;5.406;2023-03-31T04:46:22;99729.03;;;9.12;100.00
71735;BME280;59577;52.122;5.406;2023-03-31T04:49:04;99722.06;;;9.11;100.00
71735;BME280;59577;52.122;5.406;2023-03-31T04:51:31;99719.00;;;9.13;100.00
71735;BME280;59577;52.122;5.406;2023-03-31T04:53:58;99712.47;;;9.14;100.00
71735;BME280;59577;52.122;5.406;2023-03-31T04:56:25;99706.72;;;9.15;100.00
71735;BME280;59577;52.122;5.406;2023-03-31T04:58:52;99706.75;;;9.19;100.00
71735;BME280;59577;52.122;5.406;2023-03-31T05:01:18;99715.66;;;9.23;100.00
71735;BME280;59577;52.122;5.406;2023-03-31T05:03:57;99697.91;;;9.26;100.00
71735;BME280;59577;52.122;5.406;2023-03-31T05:06:24;99695.22;;;9.26;100.00
71735;BME280;59577;52.122;5.406;2023-03-31T05:08:53;99679.00;;;9.26;100.00
71735;BME280;59577;52.122;5.406;2023-03-31T05:11:19;99673.63;;;9.26;100.00
71735;BME280;59577;52.122;5.406;2023-03-31T05:13:47;99675.19;;;9.27;100.00
71735;BME280;59577;52.122;5.406;2023-03-31T05:16:13;99657.03;;;9.27;100.00
71735;BME280;59577;52.122;5.406;2023-03-31T05:18:40;99659.75;;;9.27;100.00
71735;BME280;59577;52.122;5.406;2023-03-31T05:21:18;99653.22;;;9.28;100.00
71735;BME280;59577;52.122;5.406;2023-03-31T05:23:45;99648.56;;;9.29;100.00
71735;BME280;59577;52.122;5.406;2023-03-31T05:26:12;99651.28;;;9.29;100.00
71735;BME280;59577;52.122;5.406;2023-03-31T05:28:40;99652.84;;;9.30;100.00
71735;BME280;59577;52.122;5.406;2023-03-31T05:31:10;99648.97;;;9.31;100.00
71735;BME280;59577;52.122;5.406;2023-03-31T05:33:38;99637.03;;;9.32;100.00
71735;BME280;59577;52.122;5.406;2023-03-31T05:36:09;99635.91;;;9.33;100.00
71735;BME280;59577;52.122;5.406;2023-03-31T05:38:36;99623.94;;;9.34;100.00
71735;BME280;59577;52.122;5.406;2023-03-31T05:41:03;99630.50;;;9.33;100.00
71735;BME280;59577;52.122;5.406;2023-03-31T05:43:29;99628.56;;;9.33;100.00
71735;BME280;59577;52.122;5.406;2023-03-31T05:46:09;99618.53;;;9.34;100.00
71735;BME280;59577;52.122;5.406;2023-03-31T05:48:36;99620.09;;;9.35;100.00
71735;BME280;59577;52.122;5.406;2023-03-31T05:51:03;99614.69;;;9.35;100.00
71735;BME280;59577;52.122;5.406;2023-03-31T05:53:48;99610.47;;;9.37;100.00
71735;BME280;59577;52.122;5.406;2023-03-31T05:56:15;99603.16;;;9.38;100.00
71735;BME280;59577;52.122;5.406;2023-03-31T05:58:41;99603.16;;;9.38;100.00
71735;BME280;59577;52.122;5.406;2023-03-31T06:01:11;99602.00;;;9.39;100.00
71735;BME280;59577;52.122;5.406;2023-03-31T06:03:54;99587.34;;;9.40;100.00
71735;BME280;59577;52.122;5.406;2023-03-31T06:06:23;99593.50;;;9.40;100.00
71735;BME280;59577;52.122;5.406;2023-03-31T06:08:51;99585.41;;;9.40;100.00
71735;BME280;59577;52.122;5.406;2023-03-31T06:11:20;99580.78;;;9.41;100.00
71735;BME280;59577;52.122;5.406;2023-03-31T06:14:03;99583.91;;;9.43;100.00
71735;BME280;59577;52.122;5.406;2023-03-31T06:16:29;99581.97;;;9.44;100.00
71735;BME280;59577;52.122;5.406;2023-03-31T06:18:56;99571.56;;;9.46;100.00
71735;BME280;59577;52.122;5.406;2023-03-31T06:21:32;99577.34;;;9.48;100.00
71735;BME280;59577;52.122;5.406;2023-03-31T06:23:59;99571.97;;;9.48;100.00
71735;BME280;59577;52.122;5.406;2023-03-31T06:26:37;99566.22;;;9.53;100.00
71735;BME280;59577;52.122;5.406;2023-03-31T06:29:07;99563.91;;;9.55;100.00
71735;BME280;59577;52.122;5.406;2023-03-31T06:31:33;99568.16;;;9.56;100.00
71735;BME280;59577;52.122;5.406;2023-03-31T06:34:00;99560.44;;;9.58;100.00
71735;BME280;59577;52.122;5.406;2023-03-31T06:36:27;99564.00;;;9.66;100.00
71735;BME280;59577;52.122;5.406;2023-03-31T06:38:53;99554.38;;;9.72;100.00
71735;BME280;59577;52.122;5.406;2023-03-31T06:41:20;99565.97;;;9.76;100.00
71735;BME280;59577;52.122;5.406;2023-03-31T06:43:47;99559.03;;;9.75;100.00
71735;BME280;59577;52.122;5.406;2023-03-31T06:46:29;99551.66;;;9.72;100.00
71735;BME280;59577;52.122;5.406;2023-03-31T06:48:56;99559.78;;;9.72;100.00
71735;BME280;59577;52.122;5.406;2023-03-31T06:51:22;99548.59;;;9.73;100.00
71735;BME280;59577;52.122;5.406;2023-03-31T06:53:49;99551.31;;;9.77;100.00
71735;BME280;59577;52.122;5.406;2023-03-31T06:56:15;99548.22;;;9.75;100.00
71735;BME280;59577;52.122;5.406;2023-03-31T06:58:42;99543.56;;;9.72;100.00
71735;BME280;59577;52.122;5.406;2023-03-31T07:01:17;99540.84;;;9.72;100.00
71735;BME280;59577;52.122;5.406;2023-03-31T07:03:47;99542.41;;;9.73;100.00
71735;BME280;59577;52.122;5.406;2023-03-31T07:06:13;99539.31;;;9.71;100.00
71735;BME280;59577;52.122;5.406;2023-03-31T07:08:40;99539.31;;;9.71;100.00
71735;BME280;59577;52.122;5.406;2023-03-31T07:11:18;99536.63;;;9.71;100.00
71735;BME280;59577;52.122;5.406;2023-03-31T07:13:46;99526.56;;;9.71;100.00
71735;BME280;59577;52.122;5.406;2023-03-31T07:16:13;99532.38;;;9.73;100.00
71735;BME280;59577;52.122;5.406;2023-03-31T07:18:39;99531.22;;;9.74;100.00
71735;BME280;59577;52.122;5.406;2023-03-31T07:21:07;99541.25;;;9.74;100.00
71735;BME280;59577;52.122;5.406;2023-03-31T07:23:36;99549.38;;;9.77;100.00
71735;BME280;59577;52.122;5.406;2023-03-31T07:26:03;99538.16;;;9.72;100.00
71735;BME280;59577;52.122;5.406;2023-03-31T07:28:29;99529.66;;;9.73;100.00
71735;BME280;59577;52.122;5.406;2023-03-31T07:31:13;99526.59;;;9.75;100.00
71735;BME280;59577;52.122;5.406;2023-03-31T07:33:40;99520.81;;;9.76;100.00
71735;BME280;59577;52.122;5.406;2023-03-31T07:36:07;99527.34;;;9.75;100.00
71735;BME280;59577;52.122;5.406;2023-03-31T07:38:53;99519.63;;;9.74;100.00
71735;BME280;59577;52.122;5.406;2023-03-31T07:41:21;99520.81;;;9.73;100.00
71735;BME280;59577;52.122;5.406;2023-03-31T07:43:48;99522.75;;;9.76;100.00
71735;BME280;59577;52.122;5.406;2023-03-31T07:46:24;99510.38;;;9.75;100.00
71735;BME280;59577;52.122;5.406;2023-03-31T07:48:52;99508.88;;;9.81;100.00
71735;BME280;59577;52.122;5.406;2023-03-31T07:51:21;99510.81;;;9.84;100.00
71735;BME280;59577;52.122;5.406;2023-03-31T07:53:49;99512.38;;;9.89;100.00
71735;BME280;59577;52.122;5.406;2023-03-31T07:56:19;99505.44;;;9.91;100.00
71735;BME280;59577;52.122;5.406;2023-03-31T07:58:47;99505.44;;;9.91;100.00
71735;BME280;59577;52.122;5.406;2023-03-31T08:01:15;99506.22;;;9.92;100.00
71735;BME280;59577;52.122;5.406;2023-03-31T08:03:45;99496.53;;;9.87;100.00
71735;BME280;59577;52.122;5.406;2023-03-31T08:06:23;99502.69;;;9.84;100.00
71735;BME280;59577;52.122;5.406;2023-03-31T08:08:56;99501.94;;;9.84;100.00
71735;BME280;59577;52.122;5.406;2023-03-31T08:11:24;99501.16;;;9.83;100.00
71735;BME280;59577;52.122;5.406;2023-03-31T08:13:51;99488.03;;;9.82;100.00
71735;BME280;59577;52.122;5.406;2023-03-31T08:16:18;99482.25;;;9.87;100.00
71735;BME280;59577;52.122;5.406;2023-03-31T08:18:44;99486.53;;;9.95;100.00
71735;BME280;59577;52.122;5.406;2023-03-31T08:21:11;99475.38;;;10.04;100.00
71735;BME280;59577;52.122;5.406;2023-03-31T08:23:38;99475.03;;;10.16;100.00
71735;BME280;59577;52.122;5.406;2023-03-31T08:26:16;99474.31;;;10.33;100.00
71735;BME280;59577;52.122;5.406;2023-03-31T08:28:47;99477.41;;;10.39;100.00
71735;BME280;59577;52.122;5.406;2023-03-31T08:31:15;99472.75;;;10.32;100.00
71735;BME280;59577;52.122;5.406;2023-03-31T08:33:42;99472.34;;;10.23;100.00
71735;BME280;59577;52.122;5.406;2023-03-31T08:36:10;99463.84;;;10.21;100.00
71735;BME280;59577;52.122;5.406;2023-03-31T08:38:37;99470.78;;;10.19;100.00
71735;BME280;59577;52.122;5.406;2023-03-31T08:44:03;99459.59;;;10.31;100.00
71735;BME280;59577;52.122;5.406;2023-03-31T08:46:33;99462.75;;;10.40;100.00
71735;BME280;59577;52.122;5.406;2023-03-31T08:49:02;99453.88;;;10.50;100.00
71735;BME280;59577;52.122;5.406;2023-03-31T08:51:37;99455.41;;;10.55;100.00
71735;BME280;59577;52.122;5.406;2023-03-31T08:54:06;99462.75;;;10.58;100.00
71735;BME280;59577;52.122;5.406;2023-03-31T08:56:46;99448.47;;;10.68;100.00
71735;BME280;59577;52.122;5.406;2023-03-31T08:59:32;99446.94;;;10.75;100.00
71735;BME280;59577;52.122;5.406;2023-03-31T09:02:07;99441.91;;;10.77;100.00
71735;BME280;59577;52.122;5.406;2023-03-31T09:13:07;99446.53;;;10.76;100.00
71735;BME280;59577;52.122;5.406;2023-03-31T09:15:41;99435.72;;;10.80;100.00
71735;BME280;59577;52.122;5.406;2023-03-31T09:18:30;99434.53;;;10.84;100.00
71735;BME280;59577;52.122;5.406;2023-03-31T09:24:07;99426.78;;;11.08;100.00
71735;BME280;59577;52.122;5.406;2023-03-31T09:26:43;99427.94;;;11.18;100.00
71735;BME280;59577;52.122;5.406;2023-03-31T09:29:14;99419.41;;;11.23;100.00
71735;BME280;59577;52.122;5.406;2023-03-31T09:31:45;99416.66;;;11.37;100.00
71735;BME280;59577;52.122;5.406;2023-03-31T09:34:22;99422.41;;;11.54;100.00
71735;BME280;59577;52.122;5.406;2023-03-31T09:36:49;99408.41;;;11.70;100.00
71735;BME280;59577;52.122;5.406;2023-03-31T09:39:16;99414.63;;;11.70;100.00
71735;BME280;59577;52.122;5.406;2023-03-31T09:41:46;99407.66;;;11.62;100.00
71735;BME280;59577;52.122;5.406;2023-03-31T09:44:28;99411.94;;;11.56;100.00
71735;BME280;59577;52.122;5.406;2023-03-31T09:46:57;99413.94;;;11.44;100.00
71735;BME280;59577;52.122;5.406;2023-03-31T09:49:27;99406.59;;;11.41;100.00
71735;BME280;59577;52.122;5.406;2023-03-31T09:52:04;99413.88;;;11.59;100.00
71735;BME280;59577;52.122;5.406;2023-03-31T09:54:38;99409.66;;;11.54;100.00
71735;BME280;59577;52.122;5.406;2023-03-31T09:57:23;99411.22;;;11.48;100.00
71735;BME280;59577;52.122;5.406;2023-03-31T09:59:52;99406.09;;;11.68;100.00
71735;BME280;59577;52.122;5.406;2023-03-31T10:04:48;99408.75;;;11.82;100.00
71735;BME280;59577;52.122;5.406;2023-03-31T10:07:20;99405.59;;;11.95;100.00
71735;BME280;59577;52.122;5.406;2023-03-31T10:09:48;99400.19;;;11.91;100.00
71735;BME280;59577;52.122;5.406;2023-03-31T10:12:17;99392.41;;;11.97;100.00
71735;BME280;59577;52.122;5.406;2023-03-31T10:14:48;99389.59;;;12.18;100.00
71735;BME280;59577;52.122;5.406;2023-03-31T10:17:23;99387.50;;;12.37;100.00
71735;BME280;59577;52.122;5.406;2023-03-31T10:20:33;99381.16;;;12.58;100.00
71735;BME280;59577;52.122;5.406;2023-03-31T10:23:32;99375.34;;;12.56;100.00
71735;BME280;59577;52.122;5.406;2023-03-31T10:26:00;99383.53;;;12.94;100.00
71735;BME280;59577;52.122;5.406;2023-03-31T10:28:31;99373.72;;;13.04;100.00
71735;BME280;59577;52.122;5.406;2023-03-31T10:31:01;99378.22;;;12.79;100.00
71735;BME280;59577;52.122;5.406;2023-03-31T10:33:30;99372.56;;;12.63;100.00
71735;BME280;59577;52.122;5.406;2023-03-31T10:36:06;99367.59;;;12.58;100.00
71735;BME280;59577;52.122;5.406;2023-03-31T10:38:37;99363.97;;;12.72;100.00
71735;BME280;59577;52.122;5.406;2023-03-31T10:41:05;99366.31;;;13.08;100.00
71735;BME280;59577;52.122;5.406;2023-03-31T10:43:39;99365.13;;;13.09;100.00
71735;BME280;59577;52.122;5.406;2023-03-31T10:46:06;99366.03;;;12.98;100.00
71735;BME280;59577;52.122;5.406;2023-03-31T10:48:39;99353.72;;;12.87;100.00
71735;BME280;59577;52.122;5.406;2023-03-31T10:51:11;99364.38;;;12.70;100.00
71735;BME280;59577;52.122;5.406;2023-03-31T10:53:42;99346.88;;;12.71;100.00
71735;BME280;59577;52.122;5.406;2023-03-31T10:56:36;99350.44;;;12.65;100.00
71735;BME280;59577;52.122;5.406;2023-03-31T11:02:12;99354.88;;;12.48;100.00
71735;BME280;59577;52.122;5.406;2023-03-31T11:07:44;99350.31;;;12.37;100.00
71735;BME280;59577;52.122;5.406;2023-03-31T11:10:28;99356.22;;;12.25;100.00
71735;BME280;59577;52.122;5.406;2023-03-31T11:16:18;99352.81;;;12.10;100.00
71735;BME280;59577;52.122;5.406;2023-03-31T11:22:30;99353.97;;;12.16;100.00
71735;BME280;59577;52.122;5.406;2023-03-31T11:31:17;99346.31;;;11.97;100.00
71735;BME280;59577;52.122;5.406;2023-03-31T11:39:56;99323.81;;;12.03;100.00
71735;BME280;59577;52.122;5.406;2023-03-31T11:42:41;99320.59;;;12.19;100.00
71735;BME280;59577;52.122;5.406;2023-03-31T11:45:20;99337.22;;;12.25;100.00
71735;BME280;59577;52.122;5.406;2023-03-31T11:47:51;99337.69;;;12.13;99.86
71735;BME280;59577;52.122;5.406;2023-03-31T11:50:24;99342.88;;;11.89;100.00
71735;BME280;59577;52.122;5.406;2023-03-31T11:52:59;99344.13;;;11.70;100.00
71735;BME280;59577;52.122;5.406;2023-03-31T11:55:39;99331.06;;;11.54;100.00
71735;BME280;59577;52.122;5.406;2023-03-31T11:58:13;99340.72;;;11.55;100.00
71735;BME280;59577;52.122;5.406;2023-03-31T12:00:46;99347.72;;;11.49;100.00
71735;BME280;59577;52.122;5.406;2023-03-31T12:03:18;99335.72;;;11.46;100.00
71735;BME280;59577;52.122;5.406;2023-03-31T12:05:50;99340.81;;;11.37;100.00
71735;BME280;59577;52.122;5.406;2023-03-31T12:08:39;99338.88;;;11.34;100.00
71735;BME280;59577;52.122;5.406;2023-03-31T12:11:31;99343.16;;;11.35;100.00
71735;BME280;59577;52.122;5.406;2023-03-31T12:14:25;99331.53;;;11.35;100.00
71735;BME280;59577;52.122;5.406;2023-03-31T12:17:01;99320.31;;;11.33;100.00
71735;BME280;59577;52.122;5.406;2023-03-31T12:22:10;99311.06;;;11.19;100.00
71735;BME280;59577;52.122;5.406;2023-03-31T12:24:40;99321.13;;;11.22;100.00
71735;BME280;59577;52.122;5.406;2023-03-31T12:27:17;99319.59;;;11.21;100.00
71735;BME280;59577;52.122;5.406;2023-03-31T12:29:57;99320.00;;;11.20;100.00
71735;BME280;59577;52.122;5.406;2023-03-31T12:32:28;99314.56;;;11.20;100.00
71735;BME280;59577;52.122;5.406;2023-03-31T12:35:05;99319.59;;;11.21;100.00
71735;BME280;59577;52.122;5.406;2023-03-31T12:43:32;99309.19;;;11.09;100.00
71735;BME280;59577;52.122;5.406;2023-03-31T12:46:20;99302.25;;;11.01;100.00
71735;BME280;59577;52.122;5.406;2023-03-31T12:49:11;99301.09;;;10.95;100.00
71735;BME280;59577;52.122;5.406;2023-03-31T12:54:28;99294.16;;;10.94;100.00
71735;BME280;59577;52.122;5.406;2023-03-31T12:59:40;99287.50;;;11.09;100.00
71735;BME280;59577;52.122;5.406;2023-03-31T13:04:38;99275.84;;;11.26;100.00
71735;BME280;59577;52.122;5.406;2023-03-31T13:07:11;99268.50;;;11.27;100.00
71735;BME280;59577;52.122;5.406;2023-03-31T13:09:57;99269.63;;;11.29;100.00
71735;BME280;59577;52.122;5.406;2023-03-31T13:12:27;99261.53;;;11.26;100.00
71735;BME280;59577;52.122;5.406;2023-03-31T13:14:56;99255.66;;;11.35;100.00
71735;BME280;59577;52.122;5.406;2023-03-31T13:17:34;99252.97;;;11.31;100.00
71735;BME280;59577;52.122;5.406;2023-03-31T13:20:16;99258.41;;;11.31;100.00
71735;BME280;59577;52.122;5.406;2023-03-31T13:22:59;99256.47;;;11.28;100.00
71735;BME280;59577;52.122;5.406;2023-03-31T13:25:35;99246.81;;;11.27;100.00
71735;BME280;59577;52.122;5.406;2023-03-31T13:28:15;99251.91;;;11.14;100.00
71735;BME280;59577;52.122;5.406;2023-03-31T13:30:45;99257.75;;;11.05;100.00
71735;BME280;59577;52.122;5.406;2023-03-31T13:33:14;99245.75;;;11.06;100.00
71735;BME280;59577;52.122;5.406;2023-03-31T13:35:47;99239.59;;;11.02;100.00
71735;BME280;59577;52.122;5.406;2023-03-31T13:38:24;99246.16;;;11.01;100.00
71735;BME280;59577;52.122;5.406;2023-03-31T13:44:32;99236.81;;;11.17;100.00
71735;BME280;59577;52.122;5.406;2023-03-31T13:47:18;99239.50;;;11.20;100.00
71735;BME280;59577;52.122;5.406;2023-03-31T13:55:55;99242.91;;;11.35;100.00
71735;BME280;59577;52.122;5.406;2023-03-31T14:01:22;99236.44;;;11.15;100.00
71735;BME280;59577;52.122;5.406;2023-03-31T14:04:24;99229.91;;;11.05;100.00
71735;BME280;59577;52.122;5.406;2023-03-31T14:06:58;99226.81;;;11.06;100.00
71735;BME280;59577;52.122;5.406;2023-03-31T14:09:32;99225.66;;;11.00;100.00
71735;BME280;59577;52.122;5.406;2023-03-31T14:12:00;99228.06;;;10.87;100.00
71735;BME280;59577;52.122;5.406;2023-03-31T14:14:27;99221.50;;;10.85;100.00
71735;BME280;59577;52.122;5.406;2023-03-31T14:16:59;99231.53;;;10.84;100.00
71735;BME280;59577;52.122;5.406;2023-03-31T14:30:51;99199.63;;;11.24;100.00
71735;BME280;59577;52.122;5.406;2023-03-31T14:36:34;99192.72;;;11.16;100.00
71735;BME280;59577;52.122;5.406;2023-03-31T14:39:08;99195.44;;;11.09;100.00
71735;BME280;59577;52.122;5.406;2023-03-31T14:41:38;99189.69;;;11.03;100.00
71735;BME280;59577;52.122;5.406;2023-03-31T14:44:13;99187.78;;;10.97;100.00
71735;BME280;59577;52.122;5.406;2023-03-31T14:46:40;99194.41;;;10.92;100.00
71735;BME280;59577;52.122;5.406;2023-03-31T14:49:19;99175.09;;;10.83;100.00
71735;BME280;59577;52.122;5.406;2023-03-31T14:51:47;99189.84;;;10.75;100.00
71735;BME280;59577;52.122;5.406;2023-03-31T14:54:18;99190.22;;;10.77;100.00
71735;BME280;59577;52.122;5.406;2023-03-31T14:56:49;99206.78;;;10.86;100.00
71735;BME280;59577;52.122;5.406;2023-03-31T14:59:26;99200.53;;;11.00;100.00
71735;BME280;59577;52.122;5.406;2023-03-31T15:01:57;99194.28;;;11.14;100.00
71735;BME280;59577;52.122;5.406;2023-03-31T15:04:28;99191.53;;;11.17;100.00
71735;BME280;59577;52.122;5.406;2023-03-31T15:07:07;99189.63;;;11.18;100.00
71735;BME280;59577;52.122;5.406;2023-03-31T15:09:34;99192.34;;;11.18;100.00
71735;BME280;59577;52.122;5.406;2023-03-31T15:12:06;99187.34;;;11.13;100.00
71735;BME280;59577;52.122;5.406;2023-03-31T15:14:36;99193.16;;;11.07;100.00
71735;BME280;59577;52.122;5.406;2023-03-31T15:17:19;99192.78;;;11.02;100.00